Garden City, GA

12:46 AM EDT on August 31, 2016 (GMT -0400)
Savannah International | | Change Station

Elev 49 ft 32.13 °N, 81.20 °W | Updated 53 minutes ago

Scattered Clouds
Scattered Clouds
78 °F
Feels Like 78 °F
N
7
Wind Variable Wind from ESE

Today
High -- | Low -- °F
--% Chance of Precip.
Yesterday
High -- | Low -- °F
Precip. -- in
Pressure 29.99 in
Visibility 10.0 miles
Clouds Few 1100 ft
Few 1900 ft
Scattered Clouds 10000 ft
Dew Point 73 °F
Humidity 84%
Rainfall 0.14 in
Snow Depth Not available.
6:59 AM 7:49 PM
Waning Crescent, 1% visible
METAR KSAV 310353Z 11006KT 10SM FEW011 FEW019 SCT100 26/23 A2999 RMK AO2 SLP155 T02560228
Pressure 29.99 in
Visibility 10.0 miles
Clouds Few 1100 ft
Few 1900 ft
Scattered Clouds 10000 ft
Dew Point 73 °F
Humidity 84%
Rainfall 0.14 in
Snow Depth Not available.
6:59 AM 7:49 PM
Waning Crescent, 1% visible
METAR KSAV 310353Z 11006KT 10SM FEW011 FEW019 SCT100 26/23 A2999 RMK AO2 SLP155 T02560228

10-Day Weather Forecast

Almanac

Astronomy

Aug. 31, 2016 Rise Set
Actual Time
Civil Twilight
Nautical Twilight
Astronomical Twilight
Moon
Length of Visible Light
Length of Day
Tomorrow will be .
, % of the Moon is Illuminated

Today's Extremes

State Highs State Lows

Community

WunderPhotos

Upload Photos

1,936,039 photos uploaded!

WunderBlog® & News

Nearby

Air Quality

  Air Quality AQ Index Pollutant
Not available.

Snow Depth

Station Depth Elevation

Earthquake Activity

City Distance Mag. Time & Date
Minimum magnitude displayed is 2.5.

Coastal Water Temperatures

Place Temperature

Stations

Nearby Weather Stations

Station Location Temp. Windchill Dew Point Humidity Wind Precip. Elev Updated Type
                   

Watches & Warnings

There are currently no watches in effect.